createdAt,value
2017-12-08T00:00:27.557Z,7.27
2017-12-08T00:01:48.921Z,7.27
2017-12-08T00:03:10.853Z,7.35
2017-12-08T00:04:32.739Z,7.25
2017-12-08T00:05:54.127Z,7.28
2017-12-08T00:07:16.315Z,7.25
2017-12-08T00:08:38.502Z,7.31
2017-12-08T00:10:00.171Z,7.34
2017-12-08T00:11:22.092Z,7.3
2017-12-08T00:12:43.740Z,7.3
2017-12-08T00:14:05.656Z,7.35
2017-12-08T00:15:27.300Z,7.34
2017-12-08T00:16:49.230Z,7.37
2017-12-08T00:18:10.614Z,7.42
2017-12-08T00:19:32.094Z,7.39
2017-12-08T00:20:53.724Z,7.32
2017-12-08T00:22:15.414Z,7.31
2017-12-08T00:23:36.817Z,7.24
2017-12-08T00:24:58.723Z,7.27
2017-12-08T00:26:20.645Z,7.2
2017-12-08T00:27:42.022Z,7.17
2017-12-08T00:29:03.495Z,7.23
2017-12-08T00:30:25.135Z,7.16
2017-12-08T00:31:46.939Z,7.16
2017-12-08T00:33:08.321Z,7.15
2017-12-08T00:34:29.993Z,7.02
2017-12-08T00:35:51.896Z,7.06
2017-12-08T00:37:13.594Z,7.06
2017-12-08T00:38:35.511Z,7.07
2017-12-08T00:39:57.530Z,6.92
2017-12-08T00:41:19.754Z,6.89
2017-12-08T00:42:41.673Z,6.87
2017-12-08T00:44:03.338Z,6.81
2017-12-08T00:45:24.747Z,6.89
2017-12-08T00:46:46.414Z,6.81
2017-12-08T00:48:08.096Z,6.84
2017-12-08T00:49:29.488Z,6.73
2017-12-08T00:50:51.329Z,6.64
2017-12-08T00:52:13.253Z,6.59
2017-12-08T00:53:35.276Z,6.56
2017-12-08T00:54:56.926Z,6.46
2017-12-08T00:56:18.585Z,6.43
2017-12-08T00:57:40.488Z,6.41
2017-12-08T00:59:02.401Z,6.21
2017-12-08T01:00:24.376Z,6.25
2017-12-08T01:01:46.008Z,6.19
2017-12-08T01:03:07.744Z,6.11
2017-12-08T01:04:29.925Z,6.06
2017-12-08T01:05:51.851Z,6.11
2017-12-08T01:07:13.612Z,6
2017-12-08T01:08:34.984Z,5.91
2017-12-08T01:09:56.615Z,5.99
2017-12-08T01:11:18.806Z,5.96
2017-12-08T01:12:39.976Z,5.97
2017-12-08T01:14:01.908Z,5.97
2017-12-08T01:15:23.558Z,5.91
2017-12-08T01:16:45.451Z,5.82
2017-12-08T01:18:07.155Z,5.83
2017-12-08T01:19:28.787Z,5.74
2017-12-08T01:20:50.266Z,5.75
2017-12-08T01:22:12.174Z,5.78
2017-12-08T01:23:33.280Z,5.75
2017-12-08T01:24:55.462Z,5.72
2017-12-08T01:26:16.856Z,5.72
2017-12-08T01:27:38.831Z,5.68
2017-12-08T01:29:00.214Z,5.6
2017-12-08T01:30:22.116Z,5.61
2017-12-08T01:31:44.106Z,5.54
2017-12-08T01:33:05.764Z,5.46
2017-12-08T01:34:27.686Z,5.51
2017-12-08T01:35:49.936Z,5.48
2017-12-08T01:37:11.684Z,5.46
2017-12-08T01:38:33.352Z,5.46
2017-12-08T01:39:55.806Z,5.51
2017-12-08T01:41:17.743Z,5.45
2017-12-08T01:42:39.133Z,5.48
2017-12-08T01:44:00.784Z,5.53
2017-12-08T01:45:22.707Z,5.36
2017-12-08T01:46:44.753Z,5.46
2017-12-08T01:48:06.386Z,5.35
2017-12-08T01:49:28.336Z,5.43
2017-12-08T01:50:49.756Z,5.28
2017-12-08T01:52:11.459Z,5.45
2017-12-08T01:53:33.526Z,5.42
2017-12-08T01:54:55.544Z,5.46
2017-12-08T01:56:17.704Z,5.42
2017-12-08T01:57:39.698Z,5.35
2017-12-08T01:59:01.462Z,5.33
2017-12-08T02:00:22.898Z,5.31
2017-12-08T02:01:45.187Z,5.28
2017-12-08T02:03:06.397Z,5.27
2017-12-08T02:04:28.608Z,5.28
2017-12-08T02:05:50.069Z,5.28
2017-12-08T02:07:11.747Z,5.3
2017-12-08T02:08:33.499Z,5.28
2017-12-08T02:09:55.466Z,5.31
2017-12-08T02:11:17.436Z,5.25
2017-12-08T02:12:39.157Z,5.31
2017-12-08T02:14:00.603Z,5.35
2017-12-08T02:15:22.316Z,5.25
2017-12-08T02:16:44.643Z,5.3
2017-12-08T02:18:07.013Z,5.3
2017-12-08T02:19:28.446Z,5.2
2017-12-08T02:20:49.619Z,5.27
2017-12-08T02:22:11.677Z,5.18
2017-12-08T02:23:33.388Z,5.21
2017-12-08T02:24:54.559Z,5.15
2017-12-08T02:26:16.259Z,5.12
2017-12-08T02:27:38.125Z,5.09
2017-12-08T02:29:00.367Z,5.18
2017-12-08T02:30:21.798Z,5.15
2017-12-08T02:31:43.547Z,5.12
2017-12-08T02:33:04.986Z,5.15
2017-12-08T02:34:26.454Z,5.07
2017-12-08T02:35:48.295Z,5.13
2017-12-08T02:37:09.738Z,5.13
2017-12-08T02:38:31.517Z,5.09
2017-12-08T02:39:53.507Z,5.04
2017-12-08T02:41:15.296Z,5.12
2017-12-08T02:42:36.997Z,4.99
2017-12-08T02:43:58.696Z,5
2017-12-08T02:45:21.071Z,5.1
2017-12-08T02:46:43.165Z,5.02
2017-12-08T02:48:05.417Z,5.04
2017-12-08T02:49:26.837Z,4.99
2017-12-08T02:50:48.796Z,4.86
2017-12-08T02:52:10.504Z,4.96
2017-12-08T02:53:31.664Z,4.88
2017-12-08T02:54:53.906Z,5
2017-12-08T02:56:15.877Z,5.07
2017-12-08T02:57:37.613Z,5.09
2017-12-08T02:58:59.575Z,5.15
2017-12-08T03:00:21.547Z,5.18
2017-12-08T03:01:43.510Z,5.13
2017-12-08T03:03:05.294Z,5.12
2017-12-08T03:04:27.096Z,5.18
2017-12-08T03:05:48.897Z,5.17
2017-12-08T03:07:10.399Z,5.2
2017-12-08T03:08:32.104Z,5.24
2017-12-08T03:09:53.517Z,5.18
2017-12-08T03:11:15.487Z,5.12
2017-12-08T03:12:36.915Z,5.09
2017-12-08T03:13:58.376Z,5.09
2017-12-08T03:15:19.955Z,5.07
2017-12-08T03:16:41.665Z,5.04
2017-12-08T03:18:03.405Z,5.02
2017-12-08T03:19:24.889Z,5
2017-12-08T03:20:47.127Z,5.1
2017-12-08T03:22:09.016Z,5.04
2017-12-08T03:23:31.346Z,5.09
2017-12-08T03:24:53.299Z,5.1
2017-12-08T03:26:15.247Z,5.15
2017-12-08T03:27:36.960Z,5.1
2017-12-08T03:28:59.176Z,5.18
2017-12-08T03:30:20.887Z,5.17
2017-12-08T03:31:42.316Z,5.15
2017-12-08T03:33:03.741Z,5.17
2017-12-08T03:34:25.546Z,5.1
2017-12-08T03:35:47.259Z,5.13
2017-12-08T03:37:09.495Z,5.07
2017-12-08T03:38:31.206Z,5.02
2017-12-08T03:39:52.635Z,5
2017-12-08T03:41:14.857Z,5.04
2017-12-08T03:42:36.556Z,5.07
2017-12-08T03:43:58.018Z,5.09
2017-12-08T03:45:19.194Z,5.22
2017-12-08T03:46:40.967Z,5.31
2017-12-08T03:48:03.245Z,5.31
2017-12-08T03:49:24.727Z,5.43
2017-12-08T03:50:46.424Z,5.46
2017-12-08T03:52:08.435Z,5.56
2017-12-08T03:53:30.146Z,5.67
2017-12-08T03:54:51.842Z,5.71
2017-12-08T03:56:13.605Z,5.71
2017-12-08T03:57:35.056Z,5.72
2017-12-08T03:58:56.755Z,5.74
2017-12-08T04:00:18.458Z,5.65
2017-12-08T04:01:40.695Z,5.71
2017-12-08T04:03:02.146Z,5.76
2017-12-08T04:04:23.592Z,5.64
2017-12-08T04:05:45.046Z,5.67
2017-12-08T04:07:06.997Z,5.56
2017-12-08T04:08:28.501Z,5.57
2017-12-08T04:09:50.213Z,5.53
2017-12-08T04:11:12.226Z,5.49
2017-12-08T04:12:34.150Z,5.48
2017-12-08T04:13:55.646Z,5.43
2017-12-08T04:15:17.405Z,5.27
2017-12-08T04:16:39.192Z,5.28
2017-12-08T04:18:01.361Z,5.27
2017-12-08T04:19:23.319Z,5.17
2017-12-08T04:20:45.316Z,5.12
2017-12-08T04:22:07.306Z,5.12
2017-12-08T04:23:28.788Z,4.86
2017-12-08T04:24:50.617Z,4.8
2017-12-08T04:26:12.366Z,4.82
2017-12-08T04:27:33.897Z,4.88
2017-12-08T04:28:55.872Z,4.86
2017-12-08T04:30:17.377Z,4.77
2017-12-08T04:31:38.795Z,4.69
2017-12-08T04:33:00.497Z,4.69
2017-12-08T04:34:22.463Z,4.59
2017-12-08T04:35:44.416Z,4.59
2017-12-08T04:37:06.378Z,4.66
2017-12-08T04:38:27.547Z,4.73
2017-12-08T04:39:49.009Z,4.75
2017-12-08T04:41:10.813Z,4.78
2017-12-08T04:42:32.495Z,4.91
2017-12-08T04:43:53.937Z,4.99
2017-12-08T04:45:16.019Z,5.1
2017-12-08T04:46:38.057Z,5.15
2017-12-08T04:48:00.053Z,5.33
2017-12-08T04:49:21.646Z,5.28
2017-12-08T04:50:43.366Z,5.43
2017-12-08T04:52:05.436Z,5.36
2017-12-08T04:53:26.884Z,5.49
2017-12-08T04:54:48.657Z,5.43
2017-12-08T04:56:10.942Z,5.49
2017-12-08T04:57:32.902Z,5.54
2017-12-08T04:58:54.869Z,5.6
2017-12-08T05:00:16.564Z,5.57
2017-12-08T05:01:38.257Z,5.58
2017-12-08T05:02:59.759Z,5.53
2017-12-08T05:04:21.193Z,5.64
2017-12-08T05:05:42.634Z,5.57
2017-12-08T05:07:04.363Z,5.57
2017-12-08T05:08:25.816Z,5.54
2017-12-08T05:09:47.345Z,5.53
2017-12-08T05:11:09.055Z,5.35
2017-12-08T05:12:31.290Z,5.28
2017-12-08T05:13:53.519Z,5.22
2017-12-08T05:15:14.686Z,5.13
2017-12-08T05:16:36.427Z,5.07
2017-12-08T05:17:58.521Z,5.06
2017-12-08T05:19:19.994Z,4.89
2017-12-08T05:20:41.764Z,4.88
2017-12-08T05:22:03.532Z,4.88
2017-12-08T05:23:25.510Z,4.84
2017-12-08T05:24:47.227Z,4.88
2017-12-08T05:26:08.940Z,4.89
2017-12-08T05:27:31.084Z,4.82
2017-12-08T05:28:52.859Z,4.89
2017-12-08T05:30:14.684Z,4.91
2017-12-08T05:31:36.112Z,4.97
2017-12-08T05:32:57.542Z,5.04
2017-12-08T05:34:19.615Z,5
2017-12-08T05:35:41.632Z,5.04
2017-12-08T05:37:03.877Z,5.12
2017-12-08T05:38:25.314Z,5.13
2017-12-08T05:39:47.283Z,5.09
2017-12-08T05:41:09.300Z,5.12
2017-12-08T05:42:31.006Z,5.04
2017-12-08T05:43:52.442Z,4.94
2017-12-08T05:45:14.403Z,4.89
2017-12-08T05:46:36.115Z,4.85
2017-12-08T05:47:58.460Z,4.88
2017-12-08T05:49:20.446Z,4.85
2017-12-08T05:50:42.675Z,4.92
2017-12-08T05:52:04.104Z,4.99
2017-12-08T05:53:25.830Z,5
2017-12-08T05:54:47.813Z,5.03
2017-12-08T05:56:09.795Z,5.09
2017-12-08T05:57:31.884Z,5.09
2017-12-08T05:58:53.314Z,5.1
2017-12-08T06:00:15.129Z,5.07
2017-12-08T06:01:37.148Z,5.1
2017-12-08T06:02:58.674Z,5.04
2017-12-08T06:04:20.218Z,5.04
2017-12-08T06:05:41.677Z,5.04
2017-12-08T06:07:03.397Z,5.06
2017-12-08T06:08:25.374Z,4.96
2017-12-08T06:09:47.345Z,5.02
2017-12-08T06:11:09.583Z,4.94
2017-12-08T06:12:31.381Z,4.94
2017-12-08T06:13:53.626Z,4.88
2017-12-08T06:15:15.615Z,4.84
2017-12-08T06:16:37.631Z,4.78
2017-12-08T06:17:59.613Z,4.75
2017-12-08T06:19:21.577Z,4.6
2017-12-08T06:20:43.255Z,4.63
2017-12-08T06:22:05.268Z,4.67
2017-12-08T06:23:26.763Z,4.6
2017-12-08T06:24:48.185Z,4.7
2017-12-08T06:26:09.885Z,4.75
2017-12-08T06:27:31.844Z,4.86
2017-12-08T06:28:54.095Z,4.84
2017-12-08T06:30:16.065Z,4.91
2017-12-08T06:31:37.506Z,4.86
2017-12-08T06:32:59.225Z,4.91
2017-12-08T06:34:21.195Z,4.88
2017-12-08T06:35:42.894Z,4.82
2017-12-08T06:37:04.880Z,4.75
2017-12-08T06:38:26.864Z,4.66
2017-12-08T06:39:48.346Z,4.66
2017-12-08T06:41:10.332Z,4.62
2017-12-08T06:42:31.776Z,4.62
2017-12-08T06:43:53.844Z,4.58
2017-12-08T06:45:15.139Z,4.59
2017-12-08T06:46:36.934Z,4.62
2017-12-08T06:47:58.733Z,4.5
2017-12-08T06:49:20.753Z,4.52
2017-12-08T06:50:42.865Z,4.45
2017-12-08T06:52:04.834Z,4.45
2017-12-08T06:53:26.529Z,4.32
2017-12-08T06:54:47.965Z,4.33
2017-12-08T06:56:09.946Z,4.34
2017-12-08T06:57:32.254Z,4.34
2017-12-08T06:58:53.736Z,4.37
2017-12-08T07:00:15.436Z,4.36
2017-12-08T07:01:37.206Z,4.2
2017-12-08T07:02:58.656Z,4.24
2017-12-08T07:04:20.918Z,4.12
2017-12-08T07:05:42.698Z,4.11
2017-12-08T07:07:04.944Z,4.08
2017-12-08T07:08:26.904Z,4.02
2017-12-08T07:09:48.664Z,3.93
2017-12-08T07:11:10.468Z,3.8
2017-12-08T07:12:32.175Z,3.8
2017-12-08T07:13:53.610Z,3.76
2017-12-08T07:15:15.165Z,3.78
2017-12-08T07:16:37.136Z,3.66
2017-12-08T07:17:59.424Z,3.66
2017-12-08T07:19:21.128Z,3.79
2017-12-08T07:20:42.910Z,3.76
2017-12-08T07:22:04.916Z,3.86
2017-12-08T07:23:26.404Z,3.96
2017-12-08T07:24:48.360Z,4.11
2017-12-08T07:26:09.545Z,4.11
2017-12-08T07:27:31.235Z,4.2
2017-12-08T07:28:53.268Z,4.16
2017-12-08T07:30:15.252Z,4.33
2017-12-08T07:31:36.966Z,4.27
2017-12-08T07:32:59.115Z,4.4
2017-12-08T07:34:21.099Z,4.37
2017-12-08T07:35:42.856Z,4.47
2017-12-08T07:37:04.849Z,4.47
2017-12-08T07:38:26.326Z,4.54
2017-12-08T07:39:48.283Z,4.55
2017-12-08T07:41:10.247Z,4.65
2017-12-08T07:42:32.274Z,4.7
2017-12-08T07:43:53.446Z,4.73
2017-12-08T07:45:15.317Z,4.84
2017-12-08T07:46:36.492Z,4.82
2017-12-08T07:47:58.056Z,4.73
2017-12-08T07:49:20.025Z,4.82
2017-12-08T07:50:42.525Z,4.73
2017-12-08T07:52:04.539Z,4.85
2017-12-08T07:53:26.237Z,5.1
2017-12-08T07:54:48.202Z,5.12
2017-12-08T07:56:10.169Z,5.17
2017-12-08T07:57:32.223Z,5.25
2017-12-08T07:58:54.316Z,5.25
2017-12-08T08:00:15.959Z,5.24
2017-12-08T08:01:37.677Z,5.25
2017-12-08T08:02:59.655Z,5.42
2017-12-08T08:04:21.138Z,5.39
2017-12-08T08:05:42.852Z,5.28
2017-12-08T08:07:04.795Z,5.38
2017-12-08T08:08:27.193Z,5.4
2017-12-08T08:09:48.643Z,5.4
2017-12-08T08:11:10.628Z,5.42
2017-12-08T08:12:32.335Z,5.4
2017-12-08T08:13:54.045Z,5.35
2017-12-08T08:15:15.498Z,5.18
2017-12-08T08:16:37.204Z,5.09
2017-12-08T08:17:58.917Z,5.02
2017-12-08T08:19:20.905Z,5.02
2017-12-08T08:20:42.376Z,5
2017-12-08T08:22:04.397Z,5.04
2017-12-08T08:23:26.111Z,5.07
2017-12-08T08:24:47.571Z,5.09
2017-12-08T08:26:09.500Z,5.13
2017-12-08T08:27:31.473Z,5.13
2017-12-08T08:28:52.946Z,5.17
2017-12-08T08:30:14.684Z,5.22
2017-12-08T08:31:36.399Z,5.27
2017-12-08T08:32:57.316Z,5.3
2017-12-08T08:34:19.100Z,5.2
2017-12-08T08:35:41.345Z,5.22
2017-12-08T08:37:03.325Z,5.33
2017-12-08T08:38:25.292Z,5.3
2017-12-08T08:39:47.255Z,5.31
2017-12-08T08:41:09.226Z,5.33
2017-12-08T08:42:30.416Z,5.31
2017-12-08T08:43:52.397Z,5.28
2017-12-08T08:45:14.428Z,5.3
2017-12-08T08:46:35.869Z,5.28
2017-12-08T08:47:57.585Z,5.3
2017-12-08T08:49:19.281Z,5.3
2017-12-08T08:50:41.395Z,5.25
2017-12-08T08:52:03.101Z,5.31
2017-12-08T08:53:24.530Z,5.31
2017-12-08T08:54:46.295Z,5.31
2017-12-08T08:56:08.157Z,5.25
2017-12-08T08:57:29.618Z,5.28
2017-12-08T08:58:51.605Z,5.35
2017-12-08T09:00:13.635Z,5.36
2017-12-08T09:01:35.609Z,5.4
2017-12-08T09:02:57.315Z,5.42
2017-12-08T09:04:18.818Z,5.54
2017-12-08T09:05:40.253Z,5.58
2017-12-08T09:07:02.326Z,5.74
2017-12-08T09:08:24.335Z,5.86
2017-12-08T09:09:46.219Z,5.89
2017-12-08T09:11:07.917Z,5.89
2017-12-08T09:12:29.675Z,5.93
2017-12-08T09:13:52.009Z,5.99
2017-12-08T09:15:13.455Z,6.03
2017-12-08T09:16:35.471Z,6
2017-12-08T09:17:57.167Z,6.12
2017-12-08T09:19:19.160Z,6.18
2017-12-08T09:20:40.894Z,6.21
2017-12-08T09:22:02.716Z,6.3
2017-12-08T09:23:24.675Z,6.36
2017-12-08T09:24:46.536Z,6.46
2017-12-08T09:26:08.495Z,6.55
2017-12-08T09:27:30.215Z,6.77
2017-12-08T09:28:51.803Z,6.79
2017-12-08T09:30:13.878Z,6.76
2017-12-08T09:31:35.969Z,6.84
2017-12-08T09:32:58.101Z,6.94
2017-12-08T09:34:20.016Z,6.98
2017-12-08T09:35:42.393Z,7.07
2017-12-08T09:37:04.104Z,7.21
2017-12-08T09:38:25.812Z,7.27
2017-12-08T09:39:48.112Z,7.43
2017-12-08T09:41:10.185Z,7.39
2017-12-08T09:42:32.175Z,7.46
2017-12-08T09:43:53.879Z,7.53
2017-12-08T09:45:15.461Z,7.5
2017-12-08T09:46:36.898Z,7.34
2017-12-08T09:47:59.224Z,7.3
2017-12-08T09:49:21.187Z,7.16
2017-12-08T09:50:43.438Z,7.09
2017-12-08T09:52:05.436Z,7.05
2017-12-08T09:53:27.416Z,6.98
2017-12-08T09:54:48.857Z,7.02
2017-12-08T09:56:10.841Z,7.16
2017-12-08T09:57:32.816Z,7.05
2017-12-08T09:58:54.573Z,6.89
2017-12-08T10:00:16.290Z,6.88
2017-12-08T10:01:38.583Z,6.92
2017-12-08T10:03:00.323Z,6.88
2017-12-08T10:04:22.482Z,6.81
2017-12-08T10:05:44.500Z,6.73
2017-12-08T10:07:06.221Z,6.7
2017-12-08T10:08:28.330Z,6.74
2017-12-08T10:09:50.672Z,6.61
2017-12-08T10:11:12.231Z,6.56
2017-12-08T10:12:34.166Z,6.56
2017-12-08T10:13:56.519Z,6.76
2017-12-08T10:15:18.637Z,6.77
2017-12-08T10:16:40.346Z,6.54
2017-12-08T10:18:02.345Z,6.27
2017-12-08T10:19:24.039Z,6.18
2017-12-08T10:20:45.832Z,6.11
2017-12-08T10:22:07.955Z,6.15
2017-12-08T10:23:30.195Z,6.25
2017-12-08T10:24:52.438Z,6.27
2017-12-08T10:26:14.656Z,6.19
2017-12-08T10:27:36.654Z,6.19
2017-12-08T10:28:57.553Z,6.14
2017-12-08T10:30:19.540Z,6.22
2017-12-08T10:31:41.803Z,6.33
2017-12-08T10:33:03.515Z,6.43
2017-12-08T10:34:25.325Z,6.56
2017-12-08T10:35:47.335Z,6.55
2017-12-08T10:37:09.315Z,6.59
2017-12-08T10:38:31.565Z,6.58
2017-12-08T10:39:53.908Z,6.62
2017-12-08T10:41:15.992Z,6.56
2017-12-08T10:42:37.696Z,6.58
2017-12-08T10:43:59.466Z,6.69
2017-12-08T10:45:21.436Z,6.55
2017-12-08T10:46:43.435Z,6.37
2017-12-08T10:48:05.464Z,6.36
2017-12-08T10:49:27.177Z,6.49
2017-12-08T10:50:49.434Z,6.49
2017-12-08T10:52:11.408Z,6.36
2017-12-08T10:53:33.437Z,6.25
2017-12-08T10:54:55.257Z,6.09
2017-12-08T10:56:17.078Z,6
2017-12-08T10:57:38.836Z,6
2017-12-08T10:59:00.834Z,6.06
2017-12-08T11:00:22.562Z,5.94
2017-12-08T11:01:44.890Z,6
2017-12-08T11:03:06.989Z,5.97
2017-12-08T11:04:28.484Z,5.79
2017-12-08T11:05:50.759Z,5.94
2017-12-08T11:07:12.994Z,5.91
2017-12-08T11:08:35.278Z,5.76
2017-12-08T11:09:57.084Z,5.71
2017-12-08T11:11:19.329Z,5.67
2017-12-08T11:12:41.299Z,5.57
2017-12-08T11:14:03.327Z,5.51
2017-12-08T11:15:25.315Z,5.36
2017-12-08T11:16:47.025Z,5.31
2017-12-08T11:18:08.787Z,5.17
2017-12-08T11:19:30.776Z,5.02
2017-12-08T11:20:52.488Z,4.86
2017-12-08T11:22:14.455Z,4.86
2017-12-08T11:23:36.797Z,4.75
2017-12-08T11:24:58.251Z,4.65
2017-12-08T11:26:20.484Z,4.5
2017-12-08T11:27:42.057Z,4.52
2017-12-08T11:29:04.335Z,4.33
2017-12-08T11:30:26.589Z,4.3
2017-12-08T11:31:48.032Z,4.33
2017-12-08T11:33:10.005Z,4.24
2017-12-08T11:34:31.702Z,4.27
2017-12-08T11:35:53.123Z,4.2
2017-12-08T11:37:14.614Z,4.05
2017-12-08T11:38:36.314Z,3.97
2017-12-08T11:39:58.125Z,4.02
2017-12-08T11:41:20.381Z,3.96
2017-12-08T11:42:42.395Z,3.87
2017-12-08T11:44:04.380Z,3.83
2017-12-08T11:45:26.379Z,3.83
2017-12-08T11:46:48.094Z,3.87
2017-12-08T11:48:09.805Z,3.84
2017-12-08T11:49:31.520Z,3.86
2017-12-08T11:50:53.495Z,3.75
2017-12-08T11:52:15.734Z,3.73
2017-12-08T11:53:37.724Z,3.73
2017-12-08T11:54:59.445Z,3.78
2017-12-08T11:56:21.174Z,3.73
2017-12-08T11:57:42.914Z,3.75
2017-12-08T11:59:05.143Z,3.72
2017-12-08T12:00:26.974Z,3.65
2017-12-08T12:01:49.335Z,3.65
2017-12-08T12:03:11.315Z,3.76
2017-12-08T12:04:32.745Z,3.69
2017-12-08T12:05:54.205Z,3.69
2017-12-08T12:07:15.915Z,3.69
2017-12-08T12:08:38.225Z,3.68
2017-12-08T12:10:00.242Z,3.73
2017-12-08T12:11:22.537Z,3.66
2017-12-08T12:12:44.524Z,3.55
2017-12-08T12:14:06.226Z,3.52
2017-12-08T12:15:27.703Z,3.51
2017-12-08T12:16:49.189Z,3.54
2017-12-08T12:18:10.712Z,3.57
2017-12-08T12:19:32.435Z,3.51
2017-12-08T12:20:54.406Z,3.58
2017-12-08T12:22:16.387Z,3.57
2017-12-08T12:23:38.394Z,3.66
2017-12-08T12:24:59.858Z,3.52
2017-12-08T12:26:21.825Z,3.72
2017-12-08T12:27:43.823Z,3.7
2017-12-08T12:29:05.664Z,3.75
2017-12-08T12:30:27.139Z,3.65
2017-12-08T12:31:48.914Z,3.65
2017-12-08T12:33:10.488Z,3.69
2017-12-08T12:34:31.939Z,3.62
2017-12-08T12:35:53.971Z,3.58
2017-12-08T12:37:15.945Z,3.61
2017-12-08T12:38:37.731Z,3.55
2017-12-08T12:39:59.477Z,3.55
2017-12-08T12:41:21.236Z,3.5
2017-12-08T12:42:43.204Z,3.6
2017-12-08T12:44:05.167Z,3.55
2017-12-08T12:45:26.710Z,3.6
2017-12-08T12:46:49.015Z,3.6
2017-12-08T12:48:10.982Z,3.55
2017-12-08T12:49:32.696Z,3.68
2017-12-08T12:50:54.968Z,3.66
2017-12-08T12:52:16.399Z,3.69
2017-12-08T12:53:38.668Z,3.7
2017-12-08T12:55:00.377Z,3.73
2017-12-08T12:56:22.330Z,3.75
2017-12-08T12:57:44.346Z,3.75
2017-12-08T12:59:06.614Z,3.76
2017-12-08T13:00:28.642Z,3.72
2017-12-08T13:01:50.365Z,3.73
2017-12-08T13:03:11.857Z,3.73
2017-12-08T13:04:34.146Z,3.7
2017-12-08T13:05:55.901Z,3.7
2017-12-08T13:07:17.664Z,3.76
2017-12-08T13:08:39.387Z,3.66
2017-12-08T13:10:01.435Z,3.78
2017-12-08T13:11:23.632Z,3.76
2017-12-08T13:12:45.945Z,3.79
2017-12-08T13:14:07.936Z,3.76
2017-12-08T13:15:30.250Z,3.75
2017-12-08T13:16:51.984Z,3.73
2017-12-08T13:18:14.345Z,3.83
2017-12-08T13:19:36.345Z,3.8
2017-12-08T13:20:57.889Z,3.79
2017-12-08T13:22:20.155Z,3.72
2017-12-08T13:23:42.306Z,3.69
2017-12-08T13:25:04.349Z,3.73
2017-12-08T13:26:26.623Z,3.76
2017-12-08T13:27:48.727Z,3.73
2017-12-08T13:29:10.717Z,3.66
2017-12-08T13:30:32.464Z,3.62
2017-12-08T13:31:53.922Z,3.75
2017-12-08T13:33:15.950Z,3.76
2017-12-08T13:34:37.807Z,3.73
2017-12-08T13:35:59.802Z,3.7
2017-12-08T13:37:21.290Z,3.68
2017-12-08T13:38:42.748Z,3.68
2017-12-08T13:40:04.521Z,3.69
2017-12-08T13:41:26.844Z,3.61
2017-12-08T13:42:48.815Z,3.6
2017-12-08T13:44:10.807Z,3.61
2017-12-08T13:45:32.616Z,3.45
2017-12-08T13:46:54.688Z,3.43
2017-12-08T13:48:16.667Z,3.33
2017-12-08T13:49:38.640Z,3.33
2017-12-08T13:51:00.642Z,3.14
2017-12-08T13:52:22.934Z,3
2017-12-08T13:53:44.926Z,2.93
2017-12-08T13:55:06.955Z,2.75
2017-12-08T13:56:28.697Z,2.66
2017-12-08T13:57:50.654Z,2.71
2017-12-08T13:59:12.915Z,2.74
2017-12-08T14:00:34.626Z,2.59
2017-12-08T14:01:56.965Z,2.57
2017-12-08T14:03:18.843Z,2.57
2017-12-08T14:04:40.846Z,2.46
2017-12-08T14:06:02.830Z,2.34
2017-12-08T14:07:24.831Z,2.38
2017-12-08T14:08:47.267Z,2.48
2017-12-08T14:10:09.354Z,2.39
2017-12-08T14:11:31.174Z,2.53
2017-12-08T14:12:53.227Z,2.54
2017-12-08T14:14:15.526Z,2.52
2017-12-08T14:15:36.804Z,2.56
2017-12-08T14:16:58.596Z,2.53
2017-12-08T14:18:20.075Z,2.54
2017-12-08T14:19:42.205Z,2.53
2017-12-08T14:21:03.659Z,2.42
2017-12-08T14:22:25.713Z,2.52
2017-12-08T14:23:47.776Z,2.48
2017-12-08T14:25:09.766Z,2.56
2017-12-08T14:26:31.737Z,2.53
2017-12-08T14:27:53.462Z,2.54
2017-12-08T14:29:15.521Z,2.45
2017-12-08T14:30:37.564Z,2.49
2017-12-08T14:31:59.599Z,2.49
2017-12-08T14:33:21.577Z,2.53
2017-12-08T14:34:43.655Z,2.39
2017-12-08T14:36:05.735Z,2.38
2017-12-08T14:37:27.728Z,2.43
2017-12-08T14:38:49.456Z,2.42
2017-12-08T14:40:11.440Z,2.38
2017-12-08T14:41:33.417Z,2.36
2017-12-08T14:42:55.658Z,2.34
2017-12-08T14:44:17.416Z,2.39
2017-12-08T14:45:39.682Z,2.39
2017-12-08T14:47:01.411Z,2.35
2017-12-08T14:48:23.177Z,2.49
2017-12-08T14:49:45.545Z,2.36
2017-12-08T14:51:07.818Z,2.42
2017-12-08T14:52:29.813Z,2.41
2017-12-08T14:53:51.317Z,2.48
2017-12-08T14:55:13.595Z,2.39
2017-12-08T14:56:35.730Z,2.35
2017-12-08T14:57:57.753Z,2.42
2017-12-08T14:59:19.996Z,2.49
2017-12-08T15:00:42.015Z,2.41
2017-12-08T15:02:03.753Z,2.39
2017-12-08T15:03:25.755Z,2.41
2017-12-08T15:04:47.896Z,2.52
2017-12-08T15:06:09.448Z,2.39
2017-12-08T15:07:31.754Z,2.53
2017-12-08T15:08:53.875Z,2.53
2017-12-08T15:10:15.988Z,2.49
2017-12-08T15:11:37.968Z,2.52
2017-12-08T15:13:00.284Z,2.52
2017-12-08T15:14:22.768Z,2.48
2017-12-08T15:15:44.794Z,2.49
2017-12-08T15:17:06.763Z,2.46
2017-12-08T15:18:29.135Z,2.6
2017-12-08T15:19:50.823Z,2.49
2017-12-08T15:21:12.661Z,2.53
2017-12-08T15:22:34.642Z,2.46
2017-12-08T15:23:56.938Z,2.52
2017-12-08T15:25:19.295Z,2.49
2017-12-08T15:26:41.542Z,2.41
2017-12-08T15:28:03.480Z,2.52
2017-12-08T15:29:25.523Z,2.48
2017-12-08T15:30:47.529Z,2.46
2017-12-08T15:32:09.524Z,2.53
2017-12-08T15:33:31.524Z,2.49
2017-12-08T15:34:53.782Z,2.49
2017-12-08T15:36:15.846Z,2.56
2017-12-08T15:37:38.146Z,2.59
2017-12-08T15:39:00.430Z,2.57
2017-12-08T15:40:22.175Z,2.54
2017-12-08T15:41:44.206Z,2.56
2017-12-08T15:43:06.547Z,2.59
2017-12-08T15:44:28.536Z,2.53
2017-12-08T15:45:50.357Z,2.52
2017-12-08T15:47:12.108Z,2.56
2017-12-08T15:48:33.855Z,2.54
2017-12-08T15:49:56.145Z,2.53
2017-12-08T15:51:18.475Z,2.48
2017-12-08T15:52:40.171Z,2.52
2017-12-08T15:54:01.909Z,2.39
2017-12-08T15:55:24.170Z,2.41
2017-12-08T15:56:46.471Z,2.39
2017-12-08T15:58:08.176Z,2.31
2017-12-08T15:59:30.200Z,2.31
2017-12-08T16:00:51.905Z,2.34
2017-12-08T16:02:14.274Z,2.28
2017-12-08T16:03:36.283Z,2.25
2017-12-08T16:04:58.267Z,2.25
2017-12-08T16:06:20.566Z,2.17
2017-12-08T16:07:42.295Z,2.16
2017-12-08T16:09:04.287Z,2.2
2017-12-08T16:10:26.646Z,2.23
2017-12-08T16:11:48.446Z,2.2
2017-12-08T16:13:10.596Z,2.14
2017-12-08T16:14:32.970Z,2.2
2017-12-08T16:15:54.706Z,2.23
2017-12-08T16:17:16.976Z,2.14
2017-12-08T16:18:38.435Z,2.23
2017-12-08T16:20:00.713Z,2.16
2017-12-08T16:21:22.427Z,2.23
2017-12-08T16:22:44.685Z,2.16
2017-12-08T16:24:06.666Z,2.14
2017-12-08T16:25:28.654Z,2.16
2017-12-08T16:26:50.680Z,2.1
2017-12-08T16:28:12.379Z,2.17
2017-12-08T16:29:34.395Z,2.2
2017-12-08T16:30:55.849Z,2.06
2017-12-08T16:32:17.895Z,2.05
2017-12-08T16:33:39.604Z,2.09
2017-12-08T16:35:01.029Z,2.06
2017-12-08T16:36:23.407Z,2.02
2017-12-08T16:37:45.707Z,2.12
2017-12-08T16:39:07.998Z,1.95
2017-12-08T16:40:29.721Z,2.02
2017-12-08T16:41:51.720Z,1.93
2017-12-08T16:43:13.454Z,1.99
2017-12-08T16:44:35.913Z,1.87
2017-12-08T16:45:58.166Z,1.84
2017-12-08T16:47:20.711Z,1.84
2017-12-08T16:48:42.699Z,1.91
2017-12-08T16:50:04.965Z,1.77
2017-12-08T16:51:27.385Z,1.81
2017-12-08T16:52:49.098Z,1.84
2017-12-08T16:54:11.003Z,1.81
2017-12-08T16:55:32.987Z,1.76
2017-12-08T16:56:55.540Z,1.81
2017-12-08T16:58:17.961Z,1.73
2017-12-08T16:59:40.017Z,1.77
2017-12-08T17:01:01.735Z,1.72
2017-12-08T17:02:23.767Z,1.77
2017-12-08T17:03:45.465Z,1.72
2017-12-08T17:05:06.956Z,1.7
2017-12-08T17:06:28.954Z,1.63
2017-12-08T17:07:50.676Z,1.65
2017-12-08T17:09:12.648Z,1.68
2017-12-08T17:10:34.948Z,1.6
2017-12-08T17:11:56.664Z,1.6
2017-12-08T17:13:18.432Z,1.6
2017-12-08T17:14:40.417Z,1.6
2017-12-08T17:16:02.141Z,1.59
2017-12-08T17:17:24.404Z,1.59
2017-12-08T17:18:46.395Z,1.51
2017-12-08T17:20:08.646Z,1.48
2017-12-08T17:21:30.911Z,1.51
2017-12-08T17:22:53.303Z,1.51
2017-12-08T17:24:15.388Z,1.58
2017-12-08T17:25:37.377Z,1.48
2017-12-08T17:26:59.651Z,1.63
2017-12-08T17:28:22.149Z,1.48
2017-12-08T17:29:44.269Z,1.54
2017-12-08T17:31:06.310Z,1.51
2017-12-08T17:32:27.802Z,1.51
2017-12-08T17:33:50.056Z,1.52
2017-12-08T17:35:12.293Z,1.59
2017-12-08T17:36:34.258Z,1.47
2017-12-08T17:37:56.415Z,1.5
2017-12-08T17:39:18.759Z,1.45
2017-12-08T17:40:40.842Z,1.45
2017-12-08T17:42:02.866Z,1.47
2017-12-08T17:43:24.875Z,1.44
2017-12-08T17:44:46.421Z,1.42
2017-12-08T17:46:08.146Z,1.47
2017-12-08T17:47:30.139Z,1.47
2017-12-08T17:48:52.470Z,1.37
2017-12-08T17:50:14.556Z,1.4
2017-12-08T17:51:37.100Z,1.44
2017-12-08T17:52:59.085Z,1.44
2017-12-08T17:54:21.297Z,1.41
2017-12-08T17:55:43.550Z,1.48
2017-12-08T17:57:05.305Z,1.48
2017-12-08T17:58:27.566Z,1.48
2017-12-08T17:59:49.565Z,1.45
2017-12-08T18:01:11.836Z,1.59
2017-12-08T18:02:33.564Z,1.59
2017-12-08T18:03:55.889Z,1.55
2017-12-08T18:05:18.193Z,1.58
2017-12-08T18:06:40.206Z,1.42
2017-12-08T18:08:02.488Z,1.42
2017-12-08T18:09:24.567Z,1.42
2017-12-08T18:10:46.877Z,1.37
2017-12-08T18:12:09.167Z,1.5
2017-12-08T18:13:30.779Z,1.42
2017-12-08T18:14:52.812Z,1.47